Terminal Aerodrome Forecast
Issued by NWS Duluth, MN

Home | Current Version | Previous Version | Text Only | Print | Product List | Glossary On
Versions: 1 2 3 4 5 6 7 8 9 10 11 12 13 14 15 16 17 18 19 20 21 22 23 24 25 26 27 28 29 30 31 32 33 34 35 36 37 38 39
635
FTUS43 KDLH 252308 AAC
TAFDLH
TAF AMD
KDLH 252308Z 2523/2618 08013G20KT P6SM BKN006 OVC015
      TEMPO 2600/2603 SCT006 OVC015
     FM260300 08012KT 6SM BR OVC007
     FM260600 08012KT 5SM BR OVC006
     FM261100 05009G15KT 3SM BR VCSH OVC004
      TEMPO 2611/2615 1SM -DZ BR OVC003=

USA.gov is the U.S. government's official web portal to all federal, state and local government web resources and services.